createdAt,value
2019-01-05T00:01:56.710Z,99.86
2019-01-05T00:04:44.679Z,97.49
2019-01-05T00:07:32.654Z,97.09
2019-01-05T00:10:20.605Z,95.65
2019-01-05T00:13:09.379Z,95.78
2019-01-05T00:15:57.669Z,96.39
2019-01-05T00:18:45.809Z,95.43
2019-01-05T00:24:36.108Z,95.93
2019-01-05T00:30:26.412Z,96.74
2019-01-05T00:36:21.857Z,95.99
2019-01-05T00:47:32.275Z,94.64
2019-01-05T00:53:25.513Z,94.37
2019-01-05T00:56:14.588Z,93.38
2019-01-05T00:59:08.501Z,92.13
2019-01-05T01:01:57.384Z,91.65
2019-01-05T01:04:48.465Z,92.45
2019-01-05T01:07:36.532Z,91.87
2019-01-05T01:10:24.529Z,91.71
2019-01-05T01:13:13.302Z,93.73
2019-01-05T01:16:01.382Z,92.84
2019-01-05T01:18:49.499Z,92.67
2019-01-05T01:24:21.247Z,97.45
2019-01-05T01:27:09.423Z,94.38
2019-01-05T01:32:59.610Z,93.22
2019-01-05T01:35:47.903Z,93.01
2019-01-05T01:39:14.706Z,94.79
2019-01-05T01:42:02.793Z,94.98
2019-01-05T01:50:40.691Z,96.22
2019-01-05T01:53:39.267Z,95.08
2019-01-05T02:02:36.549Z,94.42
2019-01-05T02:05:33.133Z,96.00
2019-01-05T02:14:47.274Z,94.04
2019-01-05T02:24:25.986Z,95.78
2019-01-05T02:27:36.201Z,94.50
2019-01-05T02:37:38.860Z,94.40
2019-01-05T02:41:02.241Z,93.78
2019-01-05T02:44:08.826Z,93.26
2019-01-05T02:47:35.596Z,94.29
2019-01-05T02:51:02.308Z,94.22
2019-01-05T02:54:35.213Z,93.20
2019-01-05T02:58:01.944Z,92.56
2019-01-05T03:04:40.498Z,92.53
2019-01-05T03:11:30.742Z,93.65
2019-01-05T03:14:58.260Z,95.44
2019-01-05T03:18:24.971Z,93.65
2019-01-05T03:21:36.109Z,93.62
2019-01-05T03:25:01.802Z,94.03
2019-01-05T03:28:28.502Z,92.83
2019-01-05T03:31:55.228Z,93.56
2019-01-05T03:35:21.939Z,91.29
2019-01-05T03:41:55.154Z,93.78
2019-01-05T03:45:21.862Z,92.74
2019-01-05T03:48:34.775Z,94.69
2019-01-05T03:51:53.393Z,93.50
2019-01-05T03:55:20.092Z,95.57
2019-01-05T03:58:46.808Z,96.55
2019-01-05T04:02:16.319Z,95.62
2019-01-05T04:05:39.218Z,95.67
2019-01-05T04:09:02.723Z,96.46
2019-01-05T04:12:29.297Z,96.29
2019-01-05T04:15:56.019Z,96.12
2019-01-05T04:19:22.637Z,95.71
2019-01-05T04:22:49.342Z,96.04
2019-01-05T04:26:18.891Z,95.54
2019-01-05T04:29:52.212Z,95.29
2019-01-05T04:33:16.784Z,94.25
2019-01-05T04:36:50.596Z,95.15
2019-01-05T04:40:09.245Z,94.41
2019-01-05T04:43:39.203Z,95.49
2019-01-05T04:47:05.907Z,97.03
2019-01-05T04:50:32.841Z,94.61
2019-01-05T04:54:00.604Z,93.70
2019-01-05T04:57:28.214Z,94.60
2019-01-05T05:00:52.528Z,93.43
2019-01-05T05:04:20.223Z,93.85
2019-01-05T05:10:58.142Z,94.82
2019-01-05T05:17:39.882Z,93.42
2019-01-05T05:21:06.550Z,94.36
2019-01-05T05:24:34.047Z,95.74
2019-01-05T05:28:00.685Z,94.02
2019-01-05T05:31:20.133Z,94.36
2019-01-05T05:34:46.910Z,93.96
2019-01-05T05:38:05.367Z,95.20
2019-01-05T05:41:32.209Z,95.05
2019-01-05T05:44:57.577Z,95.03
2019-01-05T05:48:28.134Z,94.21
2019-01-05T05:51:55.641Z,94.97
2019-01-05T05:58:38.153Z,95.49
2019-01-05T06:02:04.847Z,95.22
2019-01-05T06:08:43.175Z,96.03
2019-01-05T06:12:03.478Z,96.09
2019-01-05T06:15:31.027Z,95.40
2019-01-05T06:18:57.950Z,95.31
2019-01-05T06:22:20.537Z,94.81
2019-01-05T06:25:47.150Z,94.11
2019-01-05T06:29:13.958Z,95.20
2019-01-05T06:32:41.503Z,94.47
2019-01-05T06:36:08.117Z,94.13
2019-01-05T06:39:37.650Z,95.58
2019-01-05T06:43:07.163Z,93.77
2019-01-05T06:46:40.611Z,93.79
2019-01-05T06:50:07.331Z,92.98
2019-01-05T06:53:34.026Z,93.63
2019-01-05T06:57:00.788Z,92.75
2019-01-05T07:00:27.450Z,93.02
2019-01-05T07:03:54.173Z,93.26
2019-01-05T07:07:20.865Z,93.70
2019-01-05T07:17:19.197Z,95.56
2019-01-05T07:20:45.923Z,94.23
2019-01-05T07:24:12.642Z,95.48
2019-01-05T07:27:25.196Z,93.56
2019-01-05T07:30:51.902Z,94.04
2019-01-05T07:34:24.575Z,95.51
2019-01-05T07:37:52.666Z,94.25
2019-01-05T07:41:22.563Z,94.11
2019-01-05T07:44:50.086Z,94.18
2019-01-05T07:48:14.862Z,94.42
2019-01-05T07:51:42.385Z,94.22
2019-01-05T07:55:09.093Z,95.04
2019-01-05T07:58:35.701Z,94.71
2019-01-05T08:02:02.470Z,94.50
2019-01-05T08:05:29.205Z,94.73
2019-01-05T08:08:58.767Z,94.50
2019-01-05T08:12:25.383Z,94.85
2019-01-05T08:18:58.706Z,94.02
2019-01-05T08:22:25.307Z,93.16
2019-01-05T08:25:35.627Z,92.43
2019-01-05T08:29:02.366Z,92.82
2019-01-05T08:32:29.086Z,92.31
2019-01-05T08:35:55.803Z,92.21
2019-01-05T08:39:25.611Z,91.39
2019-01-05T08:42:52.306Z,90.81
2019-01-05T08:46:18.918Z,91.51
2019-01-05T08:49:35.206Z,90.41
2019-01-05T08:53:15.777Z,90.80
2019-01-05T08:57:09.429Z,89.71
2019-01-05T09:00:40.612Z,89.92
2019-01-05T09:04:07.314Z,89.46
2019-01-05T09:07:34.019Z,89.17
2019-01-05T09:11:00.965Z,89.18
2019-01-05T09:17:40.421Z,91.17
2019-01-05T09:20:58.839Z,90.01
2019-01-05T09:27:37.559Z,92.83
2019-01-05T09:31:04.167Z,90.53
2019-01-05T09:34:30.888Z,91.31
2019-01-05T09:37:54.164Z,89.84
2019-01-05T09:41:20.782Z,90.03
2019-01-05T09:44:47.550Z,90.08
2019-01-05T09:48:14.167Z,89.79
2019-01-05T09:51:40.778Z,90.07
2019-01-05T09:55:07.540Z,91.16
2019-01-05T09:58:17.340Z,90.36
2019-01-05T10:01:44.034Z,91.84
2019-01-05T10:05:13.665Z,90.99
2019-01-05T10:08:40.335Z,89.67
2019-01-05T10:12:07.091Z,90.71
2019-01-05T10:15:33.811Z,90.05
2019-01-05T10:19:00.534Z,89.68
2019-01-05T10:22:27.153Z,89.83
2019-01-05T10:25:53.849Z,91.57
2019-01-05T10:29:20.514Z,89.38
2019-01-05T10:32:47.240Z,89.55
2019-01-05T10:36:13.867Z,88.07
2019-01-05T10:39:40.631Z,90.62
2019-01-05T10:43:07.243Z,87.32
2019-01-05T10:46:33.957Z,88.58
2019-01-05T10:49:55.201Z,87.45
2019-01-05T10:53:22.714Z,87.17
2019-01-05T10:56:49.420Z,90.49
2019-01-05T11:00:22.353Z,88.30
2019-01-05T11:04:24.709Z,88.01
2019-01-05T11:07:40.289Z,88.26
2019-01-05T11:11:10.082Z,88.47
2019-01-05T11:14:31.405Z,88.58
2019-01-05T11:17:59.020Z,88.70
2019-01-05T11:21:21.206Z,90.91
2019-01-05T11:24:48.989Z,90.16
2019-01-05T11:28:15.755Z,90.49
2019-01-05T11:31:42.457Z,88.86
2019-01-05T11:38:21.728Z,87.89
2019-01-05T11:41:48.503Z,87.90
2019-01-05T11:45:15.095Z,87.18
2019-01-05T11:51:37.612Z,85.20
2019-01-05T11:55:04.216Z,85.47
2019-01-05T11:58:31.030Z,86.30
2019-01-05T12:05:10.187Z,86.04
2019-01-05T12:08:36.845Z,84.87
2019-01-05T12:15:11.976Z,84.93
2019-01-05T12:18:39.505Z,84.44
2019-01-05T12:22:06.260Z,85.45
2019-01-05T12:25:29.700Z,85.69
2019-01-05T12:28:57.215Z,84.21
2019-01-05T12:35:20.820Z,84.82
2019-01-05T12:38:49.061Z,85.26
2019-01-05T12:42:15.725Z,83.83
2019-01-05T12:45:43.236Z,86.91
2019-01-05T12:49:12.735Z,84.49
2019-01-05T12:52:43.196Z,84.90
2019-01-05T12:59:33.725Z,85.82
2019-01-05T13:03:01.249Z,86.02
2019-01-05T13:06:28.014Z,87.63
2019-01-05T13:09:54.625Z,87.22
2019-01-05T13:13:21.562Z,86.42
2019-01-05T13:16:54.139Z,84.40
2019-01-05T13:20:16.906Z,85.73
2019-01-05T13:23:46.789Z,85.88
2019-01-05T13:27:08.218Z,85.32
2019-01-05T13:30:35.784Z,85.57
2019-01-05T13:34:02.382Z,86.12
2019-01-05T13:37:29.196Z,87.15
2019-01-05T13:40:55.899Z,85.34
2019-01-05T13:44:22.665Z,84.32
2019-01-05T13:47:47.418Z,84.92
2019-01-05T13:51:14.235Z,83.64
2019-01-05T13:54:07.277Z,85.39
2019-01-05T13:57:10.565Z,83.48
2019-01-05T13:59:58.555Z,83.05
2019-01-05T14:05:39.309Z,85.03
2019-01-05T14:08:27.293Z,83.84
2019-01-05T14:11:15.244Z,84.89
2019-01-05T14:14:04.022Z,89.57
2019-01-05T14:16:52.009Z,88.80
2019-01-05T14:19:39.991Z,91.97
2019-01-05T14:22:27.882Z,93.90
2019-01-05T14:25:15.759Z,94.54
2019-01-05T14:28:03.738Z,92.63
2019-01-05T14:30:51.817Z,93.56
2019-01-05T14:33:40.603Z,97.06
2019-01-05T14:36:28.578Z,97.31
2019-01-05T14:39:16.447Z,98.22
2019-01-05T14:42:04.477Z,98.61
2019-01-05T14:44:53.260Z,100.00
2019-01-05T14:47:41.233Z,100.00
2019-01-05T14:50:29.205Z,100.00
2019-01-05T14:53:17.090Z,100.00
2019-01-05T14:56:05.873Z,100.00
2019-01-05T14:58:53.937Z,100.00
2019-01-05T15:01:42.707Z,100.00
2019-01-05T15:04:30.685Z,100.00
2019-01-05T15:07:18.689Z,100.00
2019-01-05T15:10:06.686Z,100.00
2019-01-05T15:12:54.670Z,100.00
2019-01-05T15:15:42.705Z,100.00
2019-01-05T15:18:31.511Z,100.00
2019-01-05T15:21:19.545Z,100.00
2019-01-05T15:24:07.542Z,100.00
2019-01-05T15:26:55.519Z,100.00
2019-01-05T15:29:43.506Z,100.00
2019-01-05T15:32:31.493Z,100.00
2019-01-05T15:35:19.464Z,100.00
2019-01-05T15:38:07.440Z,100.00
2019-01-05T15:40:55.414Z,100.00
2019-01-05T15:43:43.463Z,100.00
2019-01-05T15:46:31.453Z,100.00
2019-01-05T15:49:19.440Z,100.00
2019-01-05T15:52:07.476Z,100.00
2019-01-05T15:55:01.334Z,100.00
2019-01-05T15:57:49.323Z,100.00
2019-01-05T16:00:37.195Z,100.00
2019-01-05T16:03:25.178Z,100.00
2019-01-05T16:06:13.112Z,100.00
2019-01-05T16:09:00.996Z,100.00
2019-01-05T16:11:49.077Z,100.00
2019-01-05T16:14:36.947Z,100.00
2019-01-05T16:17:24.834Z,100.00
2019-01-05T16:20:12.754Z,100.00
2019-01-05T16:23:00.638Z,100.00
2019-01-05T16:25:48.615Z,100.00
2019-01-05T16:28:36.596Z,100.00
2019-01-05T16:31:24.682Z,100.00
2019-01-05T16:34:12.540Z,100.00
2019-01-05T16:37:00.514Z,100.00
2019-01-05T16:39:48.602Z,100.00
2019-01-05T16:42:36.950Z,100.00
2019-01-05T16:45:25.757Z,100.00
2019-01-05T16:48:13.810Z,100.00
2019-01-05T16:51:01.696Z,100.00
2019-01-05T16:53:49.675Z,100.00
2019-01-05T16:56:37.648Z,100.00
2019-01-05T16:59:26.095Z,100.00
2019-01-05T17:02:14.074Z,100.00
2019-01-05T17:05:02.059Z,100.00
2019-01-05T17:07:50.060Z,100.00
2019-01-05T17:10:38.045Z,100.00
2019-01-05T17:13:26.026Z,100.00
2019-01-05T17:16:13.930Z,100.00
2019-01-05T17:21:47.128Z,100.00
2019-01-05T17:24:35.233Z,100.00
2019-01-05T17:27:23.270Z,100.00
2019-01-05T17:30:12.107Z,100.00
2019-01-05T17:33:00.908Z,100.00
2019-01-05T17:35:48.868Z,100.00
2019-01-05T17:38:36.770Z,100.00
2019-01-05T17:41:24.739Z,100.00
2019-01-05T17:44:12.730Z,100.00
2019-01-05T17:47:00.614Z,100.00
2019-01-05T17:49:53.897Z,100.00
2019-01-05T17:52:42.697Z,100.00
2019-01-05T17:55:30.578Z,100.00
2019-01-05T17:58:31.314Z,100.00
2019-01-05T18:01:17.475Z,100.00
2019-01-05T18:04:05.541Z,100.00
2019-01-05T18:06:54.617Z,100.00
2019-01-05T18:09:43.534Z,100.00
2019-01-05T18:12:31.532Z,100.00
2019-01-05T18:15:19.824Z,100.00
2019-01-05T18:18:24.313Z,100.00
2019-01-05T18:21:13.660Z,100.00
2019-01-05T18:24:02.464Z,100.00
2019-01-05T18:26:50.649Z,100.00
2019-01-05T18:29:58.057Z,100.00
2019-01-05T18:32:46.517Z,100.00
2019-01-05T18:35:34.480Z,100.00
2019-01-05T18:38:23.601Z,100.00
2019-01-05T18:41:11.597Z,100.00
2019-01-05T18:44:00.508Z,100.00
2019-01-05T18:46:48.494Z,100.00
2019-01-05T18:49:37.578Z,100.00
2019-01-05T18:52:25.888Z,100.00
2019-01-05T18:55:13.909Z,100.00
2019-01-05T18:58:02.391Z,100.00
2019-01-05T19:01:09.997Z,100.00
2019-01-05T19:04:03.781Z,100.00
2019-01-05T19:06:52.661Z,100.00
2019-01-05T19:09:43.118Z,100.00
2019-01-05T19:12:31.118Z,100.00
2019-01-05T19:15:19.193Z,100.00
2019-01-05T19:18:07.247Z,100.00
2019-01-05T19:20:55.211Z,100.00
2019-01-05T19:23:43.101Z,100.00
2019-01-05T19:26:31.065Z,100.00
2019-01-05T19:29:19.890Z,100.00
2019-01-05T19:32:07.970Z,100.00
2019-01-05T19:34:56.007Z,100.00
2019-01-05T19:37:43.995Z,100.00
2019-01-05T19:40:51.595Z,100.00
2019-01-05T19:43:39.680Z,100.00
2019-01-05T19:46:29.513Z,100.00
2019-01-05T19:49:11.919Z,100.00
2019-01-05T19:52:00.721Z,100.00
2019-01-05T19:54:48.882Z,100.00
2019-01-05T19:57:36.860Z,100.00
2019-01-05T20:00:25.869Z,100.00
2019-01-05T20:03:13.905Z,100.00
2019-01-05T20:05:59.312Z,100.00
2019-01-05T20:08:47.337Z,100.00
2019-01-05T20:11:36.142Z,100.00
2019-01-05T20:14:24.123Z,100.00
2019-01-05T20:17:12.104Z,100.00
2019-01-05T20:20:00.255Z,100.00
2019-01-05T20:22:48.290Z,100.00
2019-01-05T20:25:36.169Z,100.00
2019-01-05T20:28:24.154Z,100.00
2019-01-05T20:31:12.146Z,100.00
2019-01-05T20:34:00.211Z,100.00
2019-01-05T20:36:48.194Z,100.00
2019-01-05T20:39:26.905Z,100.00
2019-01-05T20:42:15.690Z,100.00
2019-01-05T20:45:03.577Z,100.00
2019-01-05T20:47:51.656Z,100.00
2019-01-05T20:50:39.637Z,100.00
2019-01-05T20:53:27.635Z,100.00
2019-01-05T20:56:15.672Z,100.00
2019-01-05T20:59:04.438Z,100.00
2019-01-05T21:01:52.388Z,100.00
2019-01-05T21:04:40.365Z,100.00
2019-01-05T21:07:28.621Z,100.00
2019-01-05T21:10:16.610Z,100.00
2019-01-05T21:13:04.699Z,100.00
2019-01-05T21:15:52.688Z,100.00
2019-01-05T21:18:40.702Z,100.00
2019-01-05T21:21:28.595Z,100.00
2019-01-05T21:24:16.569Z,100.00
2019-01-05T21:27:04.452Z,100.00
2019-01-05T21:29:52.960Z,100.00
2019-01-05T21:32:40.847Z,100.00
2019-01-05T21:35:28.824Z,100.00
2019-01-05T21:41:09.820Z,100.00
2019-01-05T21:43:57.796Z,100.00
2019-01-05T21:46:46.613Z,100.00
2019-01-05T21:49:34.497Z,100.00
2019-01-05T21:52:23.278Z,100.00
2019-01-05T21:55:11.146Z,99.56
2019-01-05T21:57:59.029Z,99.73
2019-01-05T22:00:47.064Z,99.53
2019-01-05T22:03:35.054Z,100.00
2019-01-05T22:06:23.038Z,100.00
2019-01-05T22:09:11.030Z,99.05
2019-01-05T22:11:59.013Z,97.92
2019-01-05T22:14:46.903Z,98.99
2019-01-05T22:17:34.785Z,97.91
2019-01-05T22:20:23.062Z,99.70
2019-01-05T22:23:11.125Z,98.97
2019-01-05T22:25:59.905Z,99.09
2019-01-05T22:28:47.845Z,99.03
2019-01-05T22:34:38.480Z,98.97
2019-01-05T22:37:26.485Z,99.30
2019-01-05T22:40:14.486Z,100.00
2019-01-05T22:43:03.328Z,100.00
2019-01-05T22:45:52.135Z,99.44
2019-01-05T22:48:40.022Z,99.54
2019-01-05T22:51:28.008Z,99.62
2019-01-05T22:54:15.938Z,97.84
2019-01-05T22:57:04.725Z,97.38
2019-01-05T23:02:47.101Z,97.90
2019-01-05T23:05:34.981Z,96.61
2019-01-05T23:08:25.726Z,97.26
2019-01-05T23:11:14.509Z,96.57
2019-01-05T23:14:02.387Z,97.37
2019-01-05T23:16:50.362Z,96.32
2019-01-05T23:19:38.246Z,97.17
2019-01-05T23:22:26.291Z,96.26
2019-01-05T23:25:14.265Z,96.58
2019-01-05T23:28:02.349Z,96.06
2019-01-05T23:30:50.332Z,95.28
2019-01-05T23:33:38.372Z,95.62
2019-01-05T23:36:27.146Z,96.16
2019-01-05T23:39:15.086Z,94.85
2019-01-05T23:42:03.859Z,94.77
2019-01-05T23:44:51.831Z,95.39
2019-01-05T23:47:39.811Z,96.57
2019-01-05T23:50:27.785Z,96.69
2019-01-05T23:53:15.673Z,94.60
2019-01-05T23:56:03.661Z,95.64
2019-01-05T23:58:51.744Z,95.13
